sensor_id;sensor_type;location;lat;lon;timestamp;temperature;humidity
62589;DHT22;58504;48.770;9.148;2023-07-30T00:01:29;22.70;61.20
62589;DHT22;58504;48.770;9.148;2023-07-30T00:03:56;22.70;61.20
62589;DHT22;58504;48.770;9.148;2023-07-30T00:06:22;22.60;61.10
62589;DHT22;58504;48.770;9.148;2023-07-30T00:08:49;22.60;61.10
62589;DHT22;58504;48.770;9.148;2023-07-30T00:11:16;22.60;61.10
62589;DHT22;58504;48.770;9.148;2023-07-30T00:13:44;22.60;61.10
62589;DHT22;58504;48.770;9.148;2023-07-30T00:16:11;22.60;61.10
62589;DHT22;58504;48.770;9.148;2023-07-30T00:18:37;22.60;61.20
62589;DHT22;58504;48.770;9.148;2023-07-30T00:21:04;22.60;61.10
62589;DHT22;58504;48.770;9.148;2023-07-30T00:23:31;22.60;61.10
62589;DHT22;58504;48.770;9.148;2023-07-30T00:25:58;22.60;61.10
62589;DHT22;58504;48.770;9.148;2023-07-30T00:28:24;22.60;61.20
62589;DHT22;58504;48.770;9.148;2023-07-30T00:30:52;22.60;61.10
62589;DHT22;58504;48.770;9.148;2023-07-30T00:33:19;22.70;61.20
62589;DHT22;58504;48.770;9.148;2023-07-30T00:35:46;22.60;61.10
62589;DHT22;58504;48.770;9.148;2023-07-30T00:38:13;22.60;61.10
62589;DHT22;58504;48.770;9.148;2023-07-30T00:40:41;22.60;61.10
62589;DHT22;58504;48.770;9.148;2023-07-30T00:43:08;22.60;61.10
62589;DHT22;58504;48.770;9.148;2023-07-30T00:45:35;22.60;61.10
62589;DHT22;58504;48.770;9.148;2023-07-30T00:48:03;22.60;61.20
62589;DHT22;58504;48.770;9.148;2023-07-30T00:50:31;22.60;61.10
62589;DHT22;58504;48.770;9.148;2023-07-30T00:52:58;22.50;61.00
62589;DHT22;58504;48.770;9.148;2023-07-30T00:55:25;22.50;61.10
62589;DHT22;58504;48.770;9.148;2023-07-30T00:57:52;22.50;61.00
62589;DHT22;58504;48.770;9.148;2023-07-30T01:00:19;22.60;61.20
62589;DHT22;58504;48.770;9.148;2023-07-30T01:02:47;22.50;61.10
62589;DHT22;58504;48.770;9.148;2023-07-30T01:05:15;22.50;61.10
62589;DHT22;58504;48.770;9.148;2023-07-30T01:07:42;22.50;61.10
62589;DHT22;58504;48.770;9.148;2023-07-30T01:10:09;22.60;61.20
62589;DHT22;58504;48.770;9.148;2023-07-30T01:12:37;22.50;61.10
62589;DHT22;58504;48.770;9.148;2023-07-30T01:15:05;22.50;61.10
62589;DHT22;58504;48.770;9.148;2023-07-30T01:17:32;22.60;61.20
62589;DHT22;58504;48.770;9.148;2023-07-30T01:19:59;22.60;61.20
62589;DHT22;58504;48.770;9.148;2023-07-30T01:22:27;22.50;61.20
62589;DHT22;58504;48.770;9.148;2023-07-30T01:24:54;22.50;61.20
62589;DHT22;58504;48.770;9.148;2023-07-30T01:27:24;22.50;61.20
62589;DHT22;58504;48.770;9.148;2023-07-30T01:29:53;22.50;61.10
62589;DHT22;58504;48.770;9.148;2023-07-30T01:32:25;22.50;61.20
62589;DHT22;58504;48.770;9.148;2023-07-30T01:34:54;22.50;61.20
62589;DHT22;58504;48.770;9.148;2023-07-30T01:37:22;22.50;61.20
62589;DHT22;58504;48.770;9.148;2023-07-30T01:39:51;22.50;61.20
62589;DHT22;58504;48.770;9.148;2023-07-30T01:42:18;22.50;61.20
62589;DHT22;58504;48.770;9.148;2023-07-30T01:44:44;22.50;61.20
62589;DHT22;58504;48.770;9.148;2023-07-30T01:47:11;22.60;61.30
62589;DHT22;58504;48.770;9.148;2023-07-30T01:49:38;22.50;61.20
62589;DHT22;58504;48.770;9.148;2023-07-30T01:52:05;22.50;61.20
62589;DHT22;58504;48.770;9.148;2023-07-30T01:54:32;22.50;61.20
62589;DHT22;58504;48.770;9.148;2023-07-30T01:57:00;22.50;61.30
62589;DHT22;58504;48.770;9.148;2023-07-30T01:59:27;22.50;61.20
62589;DHT22;58504;48.770;9.148;2023-07-30T02:01:54;22.50;61.20
62589;DHT22;58504;48.770;9.148;2023-07-30T02:04:21;22.50;62.10
62589;DHT22;58504;48.770;9.148;2023-07-30T02:06:47;22.50;61.20
62589;DHT22;58504;48.770;9.148;2023-07-30T02:09:14;22.50;61.20
62589;DHT22;58504;48.770;9.148;2023-07-30T02:11:41;22.50;61.20
62589;DHT22;58504;48.770;9.148;2023-07-30T02:14:10;22.50;61.20
62589;DHT22;58504;48.770;9.148;2023-07-30T02:16:37;22.50;61.20
62589;DHT22;58504;48.770;9.148;2023-07-30T02:19:03;22.50;61.10
62589;DHT22;58504;48.770;9.148;2023-07-30T02:21:30;22.50;61.10
62589;DHT22;58504;48.770;9.148;2023-07-30T02:23:59;22.50;61.10
62589;DHT22;58504;48.770;9.148;2023-07-30T02:26:25;22.50;61.10
62589;DHT22;58504;48.770;9.148;2023-07-30T02:28:52;22.50;61.10
62589;DHT22;58504;48.770;9.148;2023-07-30T02:31:20;22.50;61.10
62589;DHT22;58504;48.770;9.148;2023-07-30T02:33:47;22.50;61.10
62589;DHT22;58504;48.770;9.148;2023-07-30T02:36:14;22.50;61.10
62589;DHT22;58504;48.770;9.148;2023-07-30T02:38:40;22.50;61.10
62589;DHT22;58504;48.770;9.148;2023-07-30T02:41:07;22.50;61.10
62589;DHT22;58504;48.770;9.148;2023-07-30T02:43:34;22.50;61.10
62589;DHT22;58504;48.770;9.148;2023-07-30T02:46:01;22.50;61.10
62589;DHT22;58504;48.770;9.148;2023-07-30T02:48:29;22.50;61.10
62589;DHT22;58504;48.770;9.148;2023-07-30T02:50:55;22.50;61.10
62589;DHT22;58504;48.770;9.148;2023-07-30T02:53:22;22.50;61.10
62589;DHT22;58504;48.770;9.148;2023-07-30T02:55:49;22.50;61.10
62589;DHT22;58504;48.770;9.148;2023-07-30T02:58:16;22.50;61.10
62589;DHT22;58504;48.770;9.148;2023-07-30T03:00:42;22.50;61.10
62589;DHT22;58504;48.770;9.148;2023-07-30T03:03:09;22.50;61.10
62589;DHT22;58504;48.770;9.148;2023-07-30T03:05:37;22.50;61.10
62589;DHT22;58504;48.770;9.148;2023-07-30T03:08:07;22.40;60.90
62589;DHT22;58504;48.770;9.148;2023-07-30T03:10:36;22.50;61.10
62589;DHT22;58504;48.770;9.148;2023-07-30T03:13:03;22.50;61.90
62589;DHT22;58504;48.770;9.148;2023-07-30T03:15:29;22.40;61.00
62589;DHT22;58504;48.770;9.148;2023-07-30T03:17:56;22.40;61.00
62589;DHT22;58504;48.770;9.148;2023-07-30T03:20:23;22.40;61.00
62589;DHT22;58504;48.770;9.148;2023-07-30T03:22:51;22.40;61.00
62589;DHT22;58504;48.770;9.148;2023-07-30T03:25:18;22.40;61.00
62589;DHT22;58504;48.770;9.148;2023-07-30T03:27:45;22.40;61.00
62589;DHT22;58504;48.770;9.148;2023-07-30T03:30:11;22.40;61.00
62589;DHT22;58504;48.770;9.148;2023-07-30T03:32:38;22.40;61.00
62589;DHT22;58504;48.770;9.148;2023-07-30T03:35:06;22.40;61.00
62589;DHT22;58504;48.770;9.148;2023-07-30T03:37:33;22.40;61.80
62589;DHT22;58504;48.770;9.148;2023-07-30T03:40:01;22.40;61.00
62589;DHT22;58504;48.770;9.148;2023-07-30T03:42:28;22.40;61.00
62589;DHT22;58504;48.770;9.148;2023-07-30T03:44:55;22.40;61.00
62589;DHT22;58504;48.770;9.148;2023-07-30T03:47:21;22.40;61.00
62589;DHT22;58504;48.770;9.148;2023-07-30T03:49:48;22.40;61.00
62589;DHT22;58504;48.770;9.148;2023-07-30T03:52:15;22.40;61.00
62589;DHT22;58504;48.770;9.148;2023-07-30T03:54:42;22.40;61.00
62589;DHT22;58504;48.770;9.148;2023-07-30T03:57:11;22.40;61.00
62589;DHT22;58504;48.770;9.148;2023-07-30T03:59:37;22.40;61.00
62589;DHT22;58504;48.770;9.148;2023-07-30T04:02:04;22.40;60.90
62589;DHT22;58504;48.770;9.148;2023-07-30T04:04:31;22.50;61.10
62589;DHT22;58504;48.770;9.148;2023-07-30T04:06:58;22.50;61.10
62589;DHT22;58504;48.770;9.148;2023-07-30T04:09:24;22.50;61.10
62589;DHT22;58504;48.770;9.148;2023-07-30T04:11:51;22.40;60.90
62589;DHT22;58504;48.770;9.148;2023-07-30T04:14:19;22.40;60.80
62589;DHT22;58504;48.770;9.148;2023-07-30T04:16:46;22.40;60.80
62589;DHT22;58504;48.770;9.148;2023-07-30T04:19:14;22.40;60.80
62589;DHT22;58504;48.770;9.148;2023-07-30T04:21:41;22.40;60.80
62589;DHT22;58504;48.770;9.148;2023-07-30T04:24:08;22.40;60.80
62589;DHT22;58504;48.770;9.148;2023-07-30T04:26:34;22.40;60.80
62589;DHT22;58504;48.770;9.148;2023-07-30T04:29:01;22.40;60.80
62589;DHT22;58504;48.770;9.148;2023-07-30T04:31:29;22.40;60.80
62589;DHT22;58504;48.770;9.148;2023-07-30T04:33:57;22.50;61.00
62589;DHT22;58504;48.770;9.148;2023-07-30T04:36:24;22.40;60.80
62589;DHT22;58504;48.770;9.148;2023-07-30T04:38:51;22.40;60.70
62589;DHT22;58504;48.770;9.148;2023-07-30T04:41:18;22.40;60.80
62589;DHT22;58504;48.770;9.148;2023-07-30T04:43:44;22.40;60.70
62589;DHT22;58504;48.770;9.148;2023-07-30T04:46:11;22.40;60.70
62589;DHT22;58504;48.770;9.148;2023-07-30T04:48:40;22.40;60.80
62589;DHT22;58504;48.770;9.148;2023-07-30T04:51:07;22.40;60.70
62589;DHT22;58504;48.770;9.148;2023-07-30T04:53:34;22.40;60.70
62589;DHT22;58504;48.770;9.148;2023-07-30T04:56:01;22.40;60.70
62589;DHT22;58504;48.770;9.148;2023-07-30T04:58:27;22.40;61.50
62589;DHT22;58504;48.770;9.148;2023-07-30T05:00:55;22.40;60.70
62589;DHT22;58504;48.770;9.148;2023-07-30T05:03:22;22.40;60.70
62589;DHT22;58504;48.770;9.148;2023-07-30T05:05:50;22.40;60.60
62589;DHT22;58504;48.770;9.148;2023-07-30T05:08:17;22.40;60.60
62589;DHT22;58504;48.770;9.148;2023-07-30T05:10:43;22.50;60.90
62589;DHT22;58504;48.770;9.148;2023-07-30T05:13:10;22.40;60.70
62589;DHT22;58504;48.770;9.148;2023-07-30T05:15:38;22.40;60.70
62589;DHT22;58504;48.770;9.148;2023-07-30T05:18:05;22.40;60.70
62589;DHT22;58504;48.770;9.148;2023-07-30T05:20:31;22.40;60.70
62589;DHT22;58504;48.770;9.148;2023-07-30T05:22:59;22.40;60.80
62589;DHT22;58504;48.770;9.148;2023-07-30T05:25:27;22.40;60.80
62589;DHT22;58504;48.770;9.148;2023-07-30T05:27:54;22.40;60.70
62589;DHT22;58504;48.770;9.148;2023-07-30T05:30:21;22.40;60.70
62589;DHT22;58504;48.770;9.148;2023-07-30T05:32:47;22.40;60.70
62589;DHT22;58504;48.770;9.148;2023-07-30T05:35:14;22.50;60.90
62589;DHT22;58504;48.770;9.148;2023-07-30T05:37:42;22.50;60.80
62589;DHT22;58504;48.770;9.148;2023-07-30T05:40:10;22.50;60.80
62589;DHT22;58504;48.770;9.148;2023-07-30T05:42:37;22.50;60.70
62589;DHT22;58504;48.770;9.148;2023-07-30T05:45:04;22.50;60.60
62589;DHT22;58504;48.770;9.148;2023-07-30T05:47:31;22.50;60.70
62589;DHT22;58504;48.770;9.148;2023-07-30T05:49:58;22.50;60.70
62589;DHT22;58504;48.770;9.148;2023-07-30T05:52:25;22.50;60.70
62589;DHT22;58504;48.770;9.148;2023-07-30T05:54:52;22.50;60.70
62589;DHT22;58504;48.770;9.148;2023-07-30T05:57:20;22.50;60.60
62589;DHT22;58504;48.770;9.148;2023-07-30T05:59:46;22.50;60.60
62589;DHT22;58504;48.770;9.148;2023-07-30T06:02:13;22.50;60.50
62589;DHT22;58504;48.770;9.148;2023-07-30T06:04:40;22.60;60.50
62589;DHT22;58504;48.770;9.148;2023-07-30T06:07:07;22.60;60.30
62589;DHT22;58504;48.770;9.148;2023-07-30T06:09:33;22.70;60.20
62589;DHT22;58504;48.770;9.148;2023-07-30T06:12:00;22.70;60.00
62589;DHT22;58504;48.770;9.148;2023-07-30T06:14:28;22.70;59.90
62589;DHT22;58504;48.770;9.148;2023-07-30T06:16:55;22.70;59.80
62589;DHT22;58504;48.770;9.148;2023-07-30T06:19:21;22.70;60.00
62589;DHT22;58504;48.770;9.148;2023-07-30T06:21:48;22.80;60.00
62589;DHT22;58504;48.770;9.148;2023-07-30T06:24:15;22.70;60.00
62589;DHT22;58504;48.770;9.148;2023-07-30T06:26:42;22.70;60.00
62589;DHT22;58504;48.770;9.148;2023-07-30T06:29:08;22.70;60.00
62589;DHT22;58504;48.770;9.148;2023-07-30T06:31:37;22.80;60.00
62589;DHT22;58504;48.770;9.148;2023-07-30T06:34:03;22.80;60.00
62589;DHT22;58504;48.770;9.148;2023-07-30T06:36:30;22.80;59.80
62589;DHT22;58504;48.770;9.148;2023-07-30T06:38:57;22.90;59.80
62589;DHT22;58504;48.770;9.148;2023-07-30T06:41:24;23.00;59.60
62589;DHT22;58504;48.770;9.148;2023-07-30T06:43:51;23.10;59.40
62589;DHT22;58504;48.770;9.148;2023-07-30T06:46:17;23.20;59.10
62589;DHT22;58504;48.770;9.148;2023-07-30T06:48:46;23.20;58.80
62589;DHT22;58504;48.770;9.148;2023-07-30T06:51:12;23.30;58.90
62589;DHT22;58504;48.770;9.148;2023-07-30T06:53:39;23.30;58.90
62589;DHT22;58504;48.770;9.148;2023-07-30T06:56:06;23.30;58.90
62589;DHT22;58504;48.770;9.148;2023-07-30T06:58:32;23.20;58.80
62589;DHT22;58504;48.770;9.148;2023-07-30T07:00:59;23.20;59.00
62589;DHT22;58504;48.770;9.148;2023-07-30T07:03:26;23.10;59.10
62589;DHT22;58504;48.770;9.148;2023-07-30T07:05:55;23.00;59.40
62589;DHT22;58504;48.770;9.148;2023-07-30T07:08:22;23.00;59.70
62589;DHT22;58504;48.770;9.148;2023-07-30T07:10:49;23.00;59.90
62589;DHT22;58504;48.770;9.148;2023-07-30T07:13:16;23.00;60.10
62589;DHT22;58504;48.770;9.148;2023-07-30T07:15:43;22.90;60.00
62589;DHT22;58504;48.770;9.148;2023-07-30T07:18:10;23.00;60.00
62589;DHT22;58504;48.770;9.148;2023-07-30T07:20:37;22.90;59.80
62589;DHT22;58504;48.770;9.148;2023-07-30T07:23:06;22.90;59.70
62589;DHT22;58504;48.770;9.148;2023-07-30T07:25:32;22.90;59.70
62589;DHT22;58504;48.770;9.148;2023-07-30T07:27:59;22.90;59.60
62589;DHT22;58504;48.770;9.148;2023-07-30T07:30:26;22.90;59.60
62589;DHT22;58504;48.770;9.148;2023-07-30T07:32:53;22.90;59.60
62589;DHT22;58504;48.770;9.148;2023-07-30T07:35:20;22.90;59.60
62589;DHT22;58504;48.770;9.148;2023-07-30T07:37:47;22.90;59.70
62589;DHT22;58504;48.770;9.148;2023-07-30T07:40:16;22.90;60.00
62589;DHT22;58504;48.770;9.148;2023-07-30T07:42:42;22.90;60.10
62589;DHT22;58504;48.770;9.148;2023-07-30T07:45:09;22.90;60.10
62589;DHT22;58504;48.770;9.148;2023-07-30T07:47:36;22.90;60.00
62589;DHT22;58504;48.770;9.148;2023-07-30T07:50:03;22.90;60.10
62589;DHT22;58504;48.770;9.148;2023-07-30T07:52:30;22.90;59.90
62589;DHT22;58504;48.770;9.148;2023-07-30T07:54:57;22.90;59.70
62589;DHT22;58504;48.770;9.148;2023-07-30T07:57:25;23.00;59.60
62589;DHT22;58504;48.770;9.148;2023-07-30T07:59:52;23.00;59.40
62589;DHT22;58504;48.770;9.148;2023-07-30T08:02:19;23.00;59.20
62589;DHT22;58504;48.770;9.148;2023-07-30T08:04:45;23.10;59.20
62589;DHT22;58504;48.770;9.148;2023-07-30T08:07:12;23.10;59.10
62589;DHT22;58504;48.770;9.148;2023-07-30T08:09:39;23.10;59.00
62589;DHT22;58504;48.770;9.148;2023-07-30T08:12:06;23.30;58.90
62589;DHT22;58504;48.770;9.148;2023-07-30T08:14:34;23.40;58.70
62589;DHT22;58504;48.770;9.148;2023-07-30T08:17:01;23.40;58.50
62589;DHT22;58504;48.770;9.148;2023-07-30T08:19:28;23.40;58.30
62589;DHT22;58504;48.770;9.148;2023-07-30T08:21:55;23.50;58.30
62589;DHT22;58504;48.770;9.148;2023-07-30T08:24:22;23.70;58.30
62589;DHT22;58504;48.770;9.148;2023-07-30T08:26:49;23.60;58.10
62589;DHT22;58504;48.770;9.148;2023-07-30T08:29:15;23.70;58.10
62589;DHT22;58504;48.770;9.148;2023-07-30T08:31:43;23.90;57.70
62589;DHT22;58504;48.770;9.148;2023-07-30T08:34:10;24.00;57.30
62589;DHT22;58504;48.770;9.148;2023-07-30T08:36:37;24.10;57.10
62589;DHT22;58504;48.770;9.148;2023-07-30T08:39:04;24.20;56.80
62589;DHT22;58504;48.770;9.148;2023-07-30T08:41:30;24.30;56.60
62589;DHT22;58504;48.770;9.148;2023-07-30T08:43:57;24.40;56.30
62589;DHT22;58504;48.770;9.148;2023-07-30T08:46:25;24.50;56.10
62589;DHT22;58504;48.770;9.148;2023-07-30T08:48:53;24.60;55.80
62589;DHT22;58504;48.770;9.148;2023-07-30T08:51:22;24.70;55.60
62589;DHT22;58504;48.770;9.148;2023-07-30T08:53:50;24.70;55.50
62589;DHT22;58504;48.770;9.148;2023-07-30T08:56:18;24.70;55.40
62589;DHT22;58504;48.770;9.148;2023-07-30T08:58:45;24.90;55.30
62589;DHT22;58504;48.770;9.148;2023-07-30T09:01:12;24.90;55.10
62589;DHT22;58504;48.770;9.148;2023-07-30T09:03:41;25.40;54.60
62589;DHT22;58504;48.770;9.148;2023-07-30T09:06:09;25.40;53.90
62589;DHT22;58504;48.770;9.148;2023-07-30T09:08:35;25.30;53.90
62589;DHT22;58504;48.770;9.148;2023-07-30T09:11:08;25.40;53.80
62589;DHT22;58504;48.770;9.148;2023-07-30T09:13:37;25.50;53.80
62589;DHT22;58504;48.770;9.148;2023-07-30T09:16:09;25.80;53.40
62589;DHT22;58504;48.770;9.148;2023-07-30T09:18:40;25.90;52.60
62589;DHT22;58504;48.770;9.148;2023-07-30T09:21:09;25.80;52.60
62589;DHT22;58504;48.770;9.148;2023-07-30T09:23:39;25.70;52.90
62589;DHT22;58504;48.770;9.148;2023-07-30T09:26:07;25.50;53.20
62589;DHT22;58504;48.770;9.148;2023-07-30T09:28:34;25.50;53.40
62589;DHT22;58504;48.770;9.148;2023-07-30T09:31:01;25.40;53.60
62589;DHT22;58504;48.770;9.148;2023-07-30T09:33:28;25.20;53.90
62589;DHT22;58504;48.770;9.148;2023-07-30T09:35:55;25.00;54.30
62589;DHT22;58504;48.770;9.148;2023-07-30T09:38:23;24.80;54.70
62589;DHT22;58504;48.770;9.148;2023-07-30T09:40:51;24.70;55.10
62589;DHT22;58504;48.770;9.148;2023-07-30T09:43:18;24.60;55.30
62589;DHT22;58504;48.770;9.148;2023-07-30T09:45:45;24.50;55.60
62589;DHT22;58504;48.770;9.148;2023-07-30T09:48:14;24.40;55.70
62589;DHT22;58504;48.770;9.148;2023-07-30T09:50:41;24.30;55.90
62589;DHT22;58504;48.770;9.148;2023-07-30T09:53:10;24.20;56.10
62589;DHT22;58504;48.770;9.148;2023-07-30T09:55:39;24.10;56.30
62589;DHT22;58504;48.770;9.148;2023-07-30T09:58:06;24.20;56.40
62589;DHT22;58504;48.770;9.148;2023-07-30T10:00:36;24.40;56.00
62589;DHT22;58504;48.770;9.148;2023-07-30T10:03:04;24.50;55.60
62589;DHT22;58504;48.770;9.148;2023-07-30T10:05:33;24.50;55.60
62589;DHT22;58504;48.770;9.148;2023-07-30T10:08:05;24.50;55.70
62589;DHT22;58504;48.770;9.148;2023-07-30T10:10:35;24.50;55.70
62589;DHT22;58504;48.770;9.148;2023-07-30T10:13:05;24.50;55.80
62589;DHT22;58504;48.770;9.148;2023-07-30T10:15:34;24.60;55.60
62589;DHT22;58504;48.770;9.148;2023-07-30T10:18:01;24.50;55.50
62589;DHT22;58504;48.770;9.148;2023-07-30T10:20:28;24.60;55.40
62589;DHT22;58504;48.770;9.148;2023-07-30T10:22:56;24.50;55.50
62589;DHT22;58504;48.770;9.148;2023-07-30T10:25:28;24.40;55.60
62589;DHT22;58504;48.770;9.148;2023-07-30T10:27:55;24.30;55.70
62589;DHT22;58504;48.770;9.148;2023-07-30T10:30:30;24.30;56.00
62589;DHT22;58504;48.770;9.148;2023-07-30T10:33:02;24.30;56.00
62589;DHT22;58504;48.770;9.148;2023-07-30T10:35:40;24.50;55.80
62589;DHT22;58504;48.770;9.148;2023-07-30T10:38:17;24.60;55.70
62589;DHT22;58504;48.770;9.148;2023-07-30T10:41:03;24.70;55.50
62589;DHT22;58504;48.770;9.148;2023-07-30T10:43:31;24.80;55.30
62589;DHT22;58504;48.770;9.148;2023-07-30T10:46:02;24.80;55.10
62589;DHT22;58504;48.770;9.148;2023-07-30T10:48:32;24.70;55.10
62589;DHT22;58504;48.770;9.148;2023-07-30T10:51:00;24.80;55.20
62589;DHT22;58504;48.770;9.148;2023-07-30T10:53:27;24.70;55.10
62589;DHT22;58504;48.770;9.148;2023-07-30T10:55:56;24.80;55.20
62589;DHT22;58504;48.770;9.148;2023-07-30T10:58:25;24.80;55.10
62589;DHT22;58504;48.770;9.148;2023-07-30T11:00:52;24.80;55.00
62589;DHT22;58504;48.770;9.148;2023-07-30T11:03:21;24.80;55.00
62589;DHT22;58504;48.770;9.148;2023-07-30T11:05:50;24.90;55.00
62589;DHT22;58504;48.770;9.148;2023-07-30T11:08:17;24.90;54.80
62589;DHT22;58504;48.770;9.148;2023-07-30T11:10:44;24.90;54.90
62589;DHT22;58504;48.770;9.148;2023-07-30T11:13:13;24.90;55.00
62589;DHT22;58504;48.770;9.148;2023-07-30T11:15:42;24.70;55.20
62589;DHT22;58504;48.770;9.148;2023-07-30T11:18:10;24.70;55.30
62589;DHT22;58504;48.770;9.148;2023-07-30T11:20:38;24.60;55.30
62589;DHT22;58504;48.770;9.148;2023-07-30T11:23:17;24.60;55.30
62589;DHT22;58504;48.770;9.148;2023-07-30T11:25:46;24.60;55.40
62589;DHT22;58504;48.770;9.148;2023-07-30T11:28:15;24.60;55.60
62589;DHT22;58504;48.770;9.148;2023-07-30T11:30:42;24.60;55.60
62589;DHT22;58504;48.770;9.148;2023-07-30T11:33:15;24.60;55.40
62589;DHT22;58504;48.770;9.148;2023-07-30T11:35:46;24.60;55.30
62589;DHT22;58504;48.770;9.148;2023-07-30T11:38:13;24.60;55.40
62589;DHT22;58504;48.770;9.148;2023-07-30T11:40:40;24.60;55.40
62589;DHT22;58504;48.770;9.148;2023-07-30T11:43:07;24.60;55.50
62589;DHT22;58504;48.770;9.148;2023-07-30T11:45:34;24.60;55.60
62589;DHT22;58504;48.770;9.148;2023-07-30T11:48:07;24.50;55.50
62589;DHT22;58504;48.770;9.148;2023-07-30T11:50:46;24.50;55.60
62589;DHT22;58504;48.770;9.148;2023-07-30T11:53:14;24.50;55.70
62589;DHT22;58504;48.770;9.148;2023-07-30T11:55:42;24.50;55.70
62589;DHT22;58504;48.770;9.148;2023-07-30T11:58:10;24.50;55.80
62589;DHT22;58504;48.770;9.148;2023-07-30T12:00:38;24.50;55.80
62589;DHT22;58504;48.770;9.148;2023-07-30T12:03:07;24.50;55.80
62589;DHT22;58504;48.770;9.148;2023-07-30T12:05:37;24.50;55.80
62589;DHT22;58504;48.770;9.148;2023-07-30T12:08:13;24.50;55.70
62589;DHT22;58504;48.770;9.148;2023-07-30T12:10:44;24.50;55.80
62589;DHT22;58504;48.770;9.148;2023-07-30T12:13:11;24.50;55.80
62589;DHT22;58504;48.770;9.148;2023-07-30T12:15:38;24.40;55.80
62589;DHT22;58504;48.770;9.148;2023-07-30T12:18:05;24.40;55.80
62589;DHT22;58504;48.770;9.148;2023-07-30T12:20:32;24.40;55.80
62589;DHT22;58504;48.770;9.148;2023-07-30T12:22:58;24.40;55.80
62589;DHT22;58504;48.770;9.148;2023-07-30T12:25:27;24.40;55.90
62589;DHT22;58504;48.770;9.148;2023-07-30T12:27:54;24.40;55.90
62589;DHT22;58504;48.770;9.148;2023-07-30T12:30:20;24.40;56.00
62589;DHT22;58504;48.770;9.148;2023-07-30T12:32:47;24.40;56.00
62589;DHT22;58504;48.770;9.148;2023-07-30T12:35:14;24.30;56.00
62589;DHT22;58504;48.770;9.148;2023-07-30T12:37:41;24.40;56.00
62589;DHT22;58504;48.770;9.148;2023-07-30T12:40:08;24.40;56.00
62589;DHT22;58504;48.770;9.148;2023-07-30T12:42:37;24.40;56.00
62589;DHT22;58504;48.770;9.148;2023-07-30T12:45:04;24.50;55.90
62589;DHT22;58504;48.770;9.148;2023-07-30T12:47:31;24.50;55.90
62589;DHT22;58504;48.770;9.148;2023-07-30T12:49:58;24.50;55.70
62589;DHT22;58504;48.770;9.148;2023-07-30T12:52:24;24.50;55.70
62589;DHT22;58504;48.770;9.148;2023-07-30T12:54:51;24.60;55.70
62589;DHT22;58504;48.770;9.148;2023-07-30T12:57:18;24.60;55.60
62589;DHT22;58504;48.770;9.148;2023-07-30T12:59:46;24.60;55.70
62589;DHT22;58504;48.770;9.148;2023-07-30T13:02:13;24.50;55.70
62589;DHT22;58504;48.770;9.148;2023-07-30T13:04:40;24.50;55.70
62589;DHT22;58504;48.770;9.148;2023-07-30T13:07:06;24.50;55.80
62589;DHT22;58504;48.770;9.148;2023-07-30T13:09:33;24.50;55.70
62589;DHT22;58504;48.770;9.148;2023-07-30T13:12:00;24.50;55.70
62589;DHT22;58504;48.770;9.148;2023-07-30T13:14:26;24.50;55.60
62589;DHT22;58504;48.770;9.148;2023-07-30T13:16:54;24.60;55.60
62589;DHT22;58504;48.770;9.148;2023-07-30T13:19:21;24.60;55.60
62589;DHT22;58504;48.770;9.148;2023-07-30T13:21:48;24.60;55.60
62589;DHT22;58504;48.770;9.148;2023-07-30T13:24:14;24.70;55.50
62589;DHT22;58504;48.770;9.148;2023-07-30T13:26:41;24.80;55.50
62589;DHT22;58504;48.770;9.148;2023-07-30T13:29:08;24.90;55.20
62589;DHT22;58504;48.770;9.148;2023-07-30T13:31:35;24.90;55.00
62589;DHT22;58504;48.770;9.148;2023-07-30T13:34:03;25.00;54.80
62589;DHT22;58504;48.770;9.148;2023-07-30T13:36:29;25.20;54.50
62589;DHT22;58504;48.770;9.148;2023-07-30T13:38:56;25.30;54.10
62589;DHT22;58504;48.770;9.148;2023-07-30T13:41:23;25.40;53.80
62589;DHT22;58504;48.770;9.148;2023-07-30T13:43:49;25.60;53.50
62589;DHT22;58504;48.770;9.148;2023-07-30T13:46:16;25.70;53.00
62589;DHT22;58504;48.770;9.148;2023-07-30T13:48:43;25.80;52.80
62589;DHT22;58504;48.770;9.148;2023-07-30T13:51:11;25.90;52.50
62589;DHT22;58504;48.770;9.148;2023-07-30T13:53:38;26.00;52.30
62589;DHT22;58504;48.770;9.148;2023-07-30T13:56:06;26.00;52.30
62589;DHT22;58504;48.770;9.148;2023-07-30T13:58:33;26.00;52.20
62589;DHT22;58504;48.770;9.148;2023-07-30T14:01:00;26.00;52.20
62589;DHT22;58504;48.770;9.148;2023-07-30T14:03:27;25.90;52.10
62589;DHT22;58504;48.770;9.148;2023-07-30T14:05:54;25.90;52.30
62589;DHT22;58504;48.770;9.148;2023-07-30T14:08:22;25.80;52.40
62589;DHT22;58504;48.770;9.148;2023-07-30T14:10:49;25.80;52.50
62589;DHT22;58504;48.770;9.148;2023-07-30T14:13:16;25.60;52.60
62589;DHT22;58504;48.770;9.148;2023-07-30T14:15:42;25.60;52.90
62589;DHT22;58504;48.770;9.148;2023-07-30T14:18:09;25.50;53.10
62589;DHT22;58504;48.770;9.148;2023-07-30T14:20:36;25.40;53.30
62589;DHT22;58504;48.770;9.148;2023-07-30T14:23:03;25.30;53.50
62589;DHT22;58504;48.770;9.148;2023-07-30T14:25:32;25.20;53.60
62589;DHT22;58504;48.770;9.148;2023-07-30T14:27:59;25.10;53.80
62589;DHT22;58504;48.770;9.148;2023-07-30T14:30:25;25.00;54.00
62589;DHT22;58504;48.770;9.148;2023-07-30T14:32:52;25.00;54.20
62589;DHT22;58504;48.770;9.148;2023-07-30T14:35:19;24.90;54.40
62589;DHT22;58504;48.770;9.148;2023-07-30T14:37:46;24.80;54.50
62589;DHT22;58504;48.770;9.148;2023-07-30T14:40:13;24.70;54.60
62589;DHT22;58504;48.770;9.148;2023-07-30T14:42:41;24.70;54.80
62589;DHT22;58504;48.770;9.148;2023-07-30T14:45:09;24.70;55.00
62589;DHT22;58504;48.770;9.148;2023-07-30T14:47:35;24.60;55.00
62589;DHT22;58504;48.770;9.148;2023-07-30T14:50:04;24.60;55.10
62589;DHT22;58504;48.770;9.148;2023-07-30T14:52:31;24.50;55.10
62589;DHT22;58504;48.770;9.148;2023-07-30T14:54:58;24.50;55.20
62589;DHT22;58504;48.770;9.148;2023-07-30T14:57:24;24.50;55.40
62589;DHT22;58504;48.770;9.148;2023-07-30T14:59:52;24.40;55.40
62589;DHT22;58504;48.770;9.148;2023-07-30T15:02:20;24.30;55.50
62589;DHT22;58504;48.770;9.148;2023-07-30T15:04:46;24.30;55.70
62589;DHT22;58504;48.770;9.148;2023-07-30T15:07:13;24.30;55.80
62589;DHT22;58504;48.770;9.148;2023-07-30T15:09:40;24.30;55.90
62589;DHT22;58504;48.770;9.148;2023-07-30T15:12:09;24.20;56.40
62589;DHT22;58504;48.770;9.148;2023-07-30T15:14:36;24.20;56.00
62589;DHT22;58504;48.770;9.148;2023-07-30T15:17:04;24.20;56.00
62589;DHT22;58504;48.770;9.148;2023-07-30T15:19:31;24.20;56.00
62589;DHT22;58504;48.770;9.148;2023-07-30T15:21:59;24.20;56.00
62589;DHT22;58504;48.770;9.148;2023-07-30T15:24:26;24.10;56.10
62589;DHT22;58504;48.770;9.148;2023-07-30T15:26:53;24.00;56.10
62589;DHT22;58504;48.770;9.148;2023-07-30T15:29:21;24.00;56.20
62589;DHT22;58504;48.770;9.148;2023-07-30T15:31:49;24.00;56.30